createdAt,value
2018-11-11T00:01:15.144Z,10.40
2018-11-11T00:03:43.792Z,10.03
2018-11-11T00:06:12.494Z,10.97
2018-11-11T00:08:41.139Z,10.80
2018-11-11T00:11:09.870Z,11.00
2018-11-11T00:13:38.479Z,11.13
2018-11-11T00:16:07.257Z,10.90
2018-11-11T00:18:35.875Z,10.00
2018-11-11T00:21:04.753Z,10.90
2018-11-11T00:23:33.462Z,11.00
2018-11-11T00:26:02.762Z,11.20
2018-11-11T00:28:31.357Z,11.10
2018-11-11T00:31:00.661Z,11.23
2018-11-11T00:33:29.308Z,11.00
2018-11-11T00:35:57.864Z,10.70
2018-11-11T00:38:27.244Z,11.37
2018-11-11T00:40:55.888Z,11.20
2018-11-11T00:43:24.579Z,10.10
2018-11-11T00:45:53.301Z,10.13
2018-11-11T00:48:21.846Z,10.83
2018-11-11T00:50:50.435Z,11.13
2018-11-11T00:53:20.472Z,10.87
2018-11-11T00:55:49.370Z,10.27
2018-11-11T00:58:18.413Z,10.53
2018-11-11T01:00:47.027Z,10.43
2018-11-11T01:03:15.759Z,11.00
2018-11-11T01:05:44.466Z,11.07
2018-11-11T01:08:13.079Z,15.77
2018-11-11T01:10:41.672Z,13.33
2018-11-11T01:13:10.297Z,11.93
2018-11-11T01:15:39.035Z,18.97
2018-11-11T01:18:07.824Z,14.83
2018-11-11T01:20:36.513Z,12.23
2018-11-11T01:23:05.766Z,15.63
2018-11-11T01:25:34.359Z,10.67
2018-11-11T01:28:02.993Z,24.90
2018-11-11T01:30:31.560Z,13.93
2018-11-11T01:33:00.248Z,15.10
2018-11-11T01:35:28.966Z,11.97
2018-11-11T01:37:57.745Z,12.80
2018-11-11T01:40:26.362Z,12.57
2018-11-11T01:42:54.971Z,14.17
2018-11-11T01:45:23.554Z,13.07
2018-11-11T01:47:52.162Z,11.53
2018-11-11T01:50:20.754Z,15.43
2018-11-11T01:52:49.456Z,14.93
2018-11-11T01:55:19.171Z,8.53
2018-11-11T01:57:47.787Z,14.07
2018-11-11T02:00:17.632Z,14.53
2018-11-11T02:02:47.050Z,15.30
2018-11-11T02:05:16.112Z,18.40
2018-11-11T02:07:46.751Z,10.13
2018-11-11T02:10:15.557Z,10.70
2018-11-11T02:12:45.234Z,9.63
2018-11-11T02:15:15.269Z,8.17
2018-11-11T02:17:43.944Z,16.63
2018-11-11T02:20:20.930Z,23.53
2018-11-11T02:22:50.868Z,12.60
2018-11-11T02:25:19.427Z,9.67
2018-11-11T02:27:48.069Z,15.93
2018-11-11T02:30:18.903Z,11.70
2018-11-11T02:32:47.494Z,8.10
2018-11-11T02:35:16.121Z,15.00
2018-11-11T02:37:45.068Z,10.63
2018-11-11T02:51:59.329Z,6.43
2018-11-11T02:57:30.452Z,6.17
2018-11-11T02:59:59.140Z,6.10
2018-11-11T03:02:27.789Z,6.20
2018-11-11T03:04:56.557Z,6.43
2018-11-11T03:07:25.417Z,5.70
2018-11-11T03:09:54.183Z,6.33
2018-11-11T03:12:22.844Z,6.23
2018-11-11T03:14:51.433Z,7.20
2018-11-11T03:17:20.041Z,6.87
2018-11-11T03:19:48.606Z,6.63
2018-11-11T03:22:17.190Z,6.53
2018-11-11T03:24:45.717Z,6.90
2018-11-11T03:27:14.276Z,6.87
2018-11-11T03:29:42.829Z,6.80
2018-11-11T03:32:11.410Z,6.90
2018-11-11T03:34:39.985Z,7.17
2018-11-11T03:37:08.571Z,6.67
2018-11-11T03:39:37.373Z,7.53
2018-11-11T03:42:06.195Z,7.17
2018-11-11T03:44:34.851Z,7.40
2018-11-11T03:47:03.621Z,7.20
2018-11-11T03:49:32.382Z,7.07
2018-11-11T03:52:01.415Z,6.93
2018-11-11T03:54:30.046Z,7.50
2018-11-11T03:56:58.954Z,7.23
2018-11-11T03:59:27.658Z,7.60
2018-11-11T04:01:56.416Z,7.03
2018-11-11T04:04:25.171Z,8.13
2018-11-11T04:06:53.772Z,8.00
2018-11-11T04:09:22.414Z,8.13
2018-11-11T04:11:51.099Z,8.63
2018-11-11T04:14:19.888Z,7.77
2018-11-11T04:16:48.643Z,8.00
2018-11-11T04:19:17.393Z,7.67
2018-11-11T04:21:46.150Z,8.77
2018-11-11T04:24:14.856Z,7.43
2018-11-11T04:26:43.743Z,7.40
2018-11-11T04:29:12.473Z,7.67
2018-11-11T04:31:41.143Z,7.77
2018-11-11T04:34:10.070Z,6.87
2018-11-11T04:36:38.643Z,6.53
2018-11-11T04:39:10.297Z,6.63
2018-11-11T04:41:38.847Z,6.77
2018-11-11T04:44:07.637Z,6.33
2018-11-11T04:46:36.401Z,6.03
2018-11-11T04:49:05.229Z,6.23
2018-11-11T04:51:33.858Z,5.90
2018-11-11T04:54:02.541Z,6.20
2018-11-11T04:56:31.161Z,5.47
2018-11-11T04:58:59.791Z,5.10
2018-11-11T05:01:28.636Z,5.60
2018-11-11T05:03:57.332Z,5.20
2018-11-11T05:06:25.863Z,5.60
2018-11-11T05:08:54.684Z,5.70
2018-11-11T05:11:23.277Z,4.90
2018-11-11T05:13:51.956Z,5.63
2018-11-11T05:16:20.610Z,5.77
2018-11-11T05:18:49.213Z,5.13
2018-11-11T05:21:17.942Z,5.60
2018-11-11T05:23:46.607Z,5.50
2018-11-11T05:26:15.375Z,5.27
2018-11-11T05:28:44.071Z,4.67
2018-11-11T05:31:12.653Z,4.70
2018-11-11T05:33:41.206Z,4.60
2018-11-11T05:36:09.774Z,4.50
2018-11-11T05:38:38.399Z,4.77
2018-11-11T05:41:07.299Z,4.60
2018-11-11T05:43:36.004Z,5.50
2018-11-11T05:46:04.711Z,5.50
2018-11-11T05:48:33.306Z,6.10
2018-11-11T05:51:02.093Z,6.87
2018-11-11T05:53:30.684Z,6.57
2018-11-11T05:55:59.322Z,6.97
2018-11-11T05:58:27.900Z,7.40
2018-11-11T06:00:56.563Z,8.23
2018-11-11T06:03:25.318Z,7.53
2018-11-11T06:05:54.004Z,7.10
2018-11-11T06:08:22.742Z,7.07
2018-11-11T06:10:51.444Z,7.33
2018-11-11T06:13:20.071Z,7.33
2018-11-11T06:15:48.830Z,6.90
2018-11-11T06:18:17.484Z,7.10
2018-11-11T06:20:46.133Z,6.97
2018-11-11T06:23:14.846Z,7.40
2018-11-11T06:25:43.531Z,7.27
2018-11-11T06:28:12.174Z,6.63
2018-11-11T06:30:40.812Z,7.67
2018-11-11T06:33:09.400Z,7.57
2018-11-11T06:35:38.001Z,6.93
2018-11-11T06:38:06.603Z,7.80
2018-11-11T06:40:35.256Z,6.97
2018-11-11T06:43:03.927Z,7.80
2018-11-11T06:45:32.565Z,8.07
2018-11-11T06:48:01.246Z,7.80
2018-11-11T06:50:29.892Z,8.70
2018-11-11T06:52:58.636Z,8.67
2018-11-11T06:55:27.322Z,7.97
2018-11-11T06:57:55.975Z,8.87
2018-11-11T07:00:24.681Z,7.77
2018-11-11T07:03:04.590Z,8.33
2018-11-11T07:05:33.204Z,7.60
2018-11-11T07:08:01.878Z,8.43
2018-11-11T07:10:31.566Z,8.10
2018-11-11T07:13:00.307Z,7.13
2018-11-11T07:15:29.184Z,8.13
2018-11-11T07:17:57.881Z,8.40
2018-11-11T07:20:26.798Z,7.70
2018-11-11T07:22:55.383Z,8.40
2018-11-11T07:25:24.124Z,8.13
2018-11-11T07:27:52.619Z,7.37
2018-11-11T07:30:21.221Z,8.47
2018-11-11T07:32:50.994Z,8.33
2018-11-11T07:35:19.668Z,8.13
2018-11-11T07:37:48.276Z,8.33
2018-11-11T07:40:17.415Z,8.40
2018-11-11T07:42:46.062Z,7.57
2018-11-11T07:45:14.738Z,8.00
2018-11-11T07:47:43.533Z,8.23
2018-11-11T07:50:12.633Z,7.80
2018-11-11T07:52:41.322Z,8.20
2018-11-11T07:55:12.044Z,7.83
2018-11-11T07:57:41.089Z,7.47
2018-11-11T08:00:11.929Z,7.80
2018-11-11T08:02:40.714Z,7.30
2018-11-11T08:05:09.743Z,6.73
2018-11-11T08:07:38.485Z,7.50
2018-11-11T08:10:17.484Z,8.10
2018-11-11T08:12:46.394Z,6.67
2018-11-11T08:15:15.039Z,6.70
2018-11-11T08:17:44.030Z,6.47
2018-11-11T08:20:12.723Z,7.00
2018-11-11T08:22:41.850Z,6.13
2018-11-11T08:25:10.513Z,6.63
2018-11-11T08:27:39.227Z,6.27
2018-11-11T08:30:08.934Z,6.30
2018-11-11T08:32:38.004Z,5.50
2018-11-11T08:35:07.713Z,6.03
2018-11-11T08:37:36.314Z,6.20
2018-11-11T08:40:05.463Z,5.77
2018-11-11T08:42:34.163Z,5.87
2018-11-11T08:45:03.091Z,5.80
2018-11-11T08:47:31.761Z,5.53
2018-11-11T08:50:00.478Z,5.60
2018-11-11T08:52:29.081Z,5.30
2018-11-11T08:54:57.812Z,5.60
2018-11-11T08:57:26.576Z,5.27
2018-11-11T08:59:55.340Z,4.33
2018-11-11T09:02:24.066Z,5.27
2018-11-11T09:04:53.188Z,5.80
2018-11-11T09:07:21.968Z,5.40
2018-11-11T09:09:50.598Z,4.87
2018-11-11T09:12:19.225Z,5.13
2018-11-11T09:14:47.977Z,5.20
2018-11-11T09:17:16.720Z,5.00
2018-11-11T09:19:45.474Z,4.60
2018-11-11T09:22:14.164Z,4.37
2018-11-11T09:24:42.793Z,4.53
2018-11-11T09:27:11.512Z,4.70
2018-11-11T09:29:40.259Z,4.77
2018-11-11T09:32:08.932Z,5.17
2018-11-11T09:34:37.711Z,4.73
2018-11-11T09:37:06.609Z,4.20
2018-11-11T09:39:35.248Z,4.63
2018-11-11T09:42:03.941Z,4.40
2018-11-11T09:44:32.673Z,4.10
2018-11-11T09:47:01.363Z,4.43
2018-11-11T09:49:30.134Z,4.17
2018-11-11T09:51:59.166Z,3.93
2018-11-11T09:54:28.152Z,3.67
2018-11-11T09:56:56.938Z,4.13
2018-11-11T09:59:25.735Z,4.40
2018-11-11T10:02:03.503Z,3.83
2018-11-11T10:04:40.035Z,4.20
2018-11-11T10:07:15.819Z,4.07
2018-11-11T10:09:49.696Z,3.97
2018-11-11T10:12:23.806Z,3.83
2018-11-11T10:15:00.637Z,4.00
2018-11-11T10:18:33.257Z,4.23
2018-11-11T10:24:07.077Z,4.60
2018-11-11T10:26:42.855Z,4.30
2018-11-11T10:30:16.601Z,3.57
2018-11-11T10:33:02.526Z,4.10
2018-11-11T10:35:53.236Z,4.10
2018-11-11T10:38:28.372Z,3.93
2018-11-11T10:41:01.566Z,4.30
2018-11-11T10:43:37.031Z,4.20
2018-11-11T10:46:10.315Z,3.87
2018-11-11T10:48:41.952Z,3.90
2018-11-11T10:51:11.214Z,3.93
2018-11-11T10:53:40.927Z,4.17
2018-11-11T10:56:09.795Z,3.97
2018-11-11T10:58:43.705Z,3.97
2018-11-11T11:01:18.889Z,3.67
2018-11-11T11:03:47.708Z,3.77
2018-11-11T11:06:16.597Z,3.53
2018-11-11T11:08:50.563Z,3.27
2018-11-11T11:11:19.337Z,3.60
2018-11-11T11:13:48.122Z,3.20
2018-11-11T11:16:16.866Z,3.50
2018-11-11T11:18:45.637Z,3.50
2018-11-11T11:21:14.859Z,3.23
2018-11-11T11:23:43.948Z,3.00
2018-11-11T11:26:12.949Z,3.37
2018-11-11T11:28:41.968Z,3.27
2018-11-11T11:31:11.195Z,3.43
2018-11-11T11:33:40.158Z,2.90
2018-11-11T11:36:09.189Z,2.60
2018-11-11T11:38:39.081Z,2.70
2018-11-11T11:41:07.721Z,2.90
2018-11-11T11:43:36.528Z,2.53
2018-11-11T11:46:05.793Z,2.13
2018-11-11T11:48:35.918Z,1.63
2018-11-11T11:51:05.256Z,2.10
2018-11-11T11:53:34.083Z,1.47
2018-11-11T11:56:03.015Z,1.70
2018-11-11T11:58:33.034Z,1.73
2018-11-11T12:01:01.858Z,1.50
2018-11-11T12:03:30.596Z,1.60
2018-11-11T12:05:59.292Z,1.43
2018-11-11T12:08:28.144Z,1.50
2018-11-11T12:10:57.291Z,1.30
2018-11-11T12:13:26.251Z,1.60
2018-11-11T12:15:55.307Z,1.20
2018-11-11T12:18:24.060Z,1.53
2018-11-11T12:20:52.779Z,1.40
2018-11-11T12:23:22.064Z,1.30
2018-11-11T12:25:51.121Z,1.10
2018-11-11T12:28:20.195Z,1.23
2018-11-11T12:30:49.179Z,1.37
2018-11-11T12:33:17.978Z,1.23
2018-11-11T12:35:47.253Z,1.13
2018-11-11T12:38:15.982Z,1.33
2018-11-11T12:40:44.625Z,1.10
2018-11-11T12:43:13.339Z,1.00
2018-11-11T12:45:41.927Z,1.13
2018-11-11T12:48:10.815Z,1.10
2018-11-11T12:50:39.538Z,1.13
2018-11-11T12:53:08.177Z,1.13
2018-11-11T12:55:36.883Z,1.20
2018-11-11T12:58:06.225Z,1.10
2018-11-11T13:00:34.965Z,0.97
2018-11-11T13:03:03.726Z,0.90
2018-11-11T13:05:32.402Z,1.10
2018-11-11T13:08:01.352Z,1.10
2018-11-11T13:10:30.687Z,1.10
2018-11-11T13:12:59.312Z,1.23
2018-11-11T13:15:28.251Z,1.10
2018-11-11T13:17:57.047Z,1.00
2018-11-11T13:20:25.771Z,1.10
2018-11-11T13:22:54.823Z,0.83
2018-11-11T13:25:23.577Z,1.03
2018-11-11T13:27:52.396Z,0.80
2018-11-11T13:30:21.297Z,1.10
2018-11-11T13:32:50.200Z,0.90
2018-11-11T13:35:19.055Z,1.10
2018-11-11T13:37:53.418Z,0.93
2018-11-11T13:40:25.396Z,0.90
2018-11-11T13:42:54.243Z,1.17
2018-11-11T13:45:23.597Z,1.10
2018-11-11T13:47:52.781Z,1.00
2018-11-11T13:50:24.122Z,0.90
2018-11-11T13:52:54.277Z,1.30
2018-11-11T13:55:23.453Z,1.10
2018-11-11T13:57:52.307Z,0.93
2018-11-11T14:00:26.898Z,1.20
2018-11-11T14:02:56.029Z,0.93
2018-11-11T14:05:25.020Z,1.10
2018-11-11T14:07:53.659Z,1.23
2018-11-11T14:10:23.867Z,1.03
2018-11-11T14:12:52.728Z,1.20
2018-11-11T14:15:26.320Z,1.10
2018-11-11T14:17:55.669Z,1.17
2018-11-11T14:20:25.449Z,1.47
2018-11-11T14:22:55.050Z,1.43
2018-11-11T14:25:26.643Z,1.50
2018-11-11T14:27:55.295Z,1.33
2018-11-11T14:30:25.414Z,1.70
2018-11-11T14:32:54.895Z,1.50
2018-11-11T14:35:23.762Z,1.60
2018-11-11T14:37:52.956Z,1.60
2018-11-11T14:40:23.558Z,1.40
2018-11-11T14:42:52.393Z,1.50
2018-11-11T14:45:23.429Z,1.60
2018-11-11T14:47:54.276Z,1.50
2018-11-11T14:50:23.671Z,1.47
2018-11-11T14:52:52.617Z,1.60
2018-11-11T14:55:22.619Z,1.53
2018-11-11T14:57:51.310Z,1.30
2018-11-11T15:00:23.347Z,1.37
2018-11-11T15:02:59.026Z,1.30
2018-11-11T15:05:28.019Z,1.53
2018-11-11T15:07:56.898Z,1.83
2018-11-11T15:10:25.539Z,1.43
2018-11-11T15:12:54.528Z,1.50
2018-11-11T15:15:24.185Z,1.50
2018-11-11T15:17:54.441Z,1.60
2018-11-11T15:20:23.263Z,1.70
2018-11-11T15:22:51.888Z,1.50
2018-11-11T15:25:22.222Z,1.63
2018-11-11T15:27:51.193Z,1.80
2018-11-11T15:30:26.264Z,1.60
2018-11-11T15:32:55.534Z,1.57
2018-11-11T15:35:24.277Z,1.47
2018-11-11T15:37:52.977Z,1.53
2018-11-11T15:40:27.888Z,2.10
2018-11-11T15:42:56.747Z,1.60
2018-11-11T15:45:26.959Z,1.53
2018-11-11T15:47:55.776Z,1.50
2018-11-11T15:50:26.225Z,1.60
2018-11-11T15:52:56.396Z,1.80
2018-11-11T15:55:26.451Z,2.00
2018-11-11T15:57:55.139Z,1.57
2018-11-11T16:00:26.292Z,1.73
2018-11-11T16:02:55.041Z,1.77
2018-11-11T16:05:23.722Z,1.37
2018-11-11T16:07:53.087Z,1.60
2018-11-11T16:10:28.020Z,1.80
2018-11-11T16:12:57.034Z,1.60
2018-11-11T16:15:35.812Z,1.80
2018-11-11T16:18:07.188Z,1.83
2018-11-11T16:20:35.964Z,1.63
2018-11-11T16:23:05.740Z,1.30
2018-11-11T16:25:35.020Z,1.30
2018-11-11T16:28:03.558Z,1.90
2018-11-11T16:30:33.795Z,1.97
2018-11-11T16:33:02.796Z,1.90
2018-11-11T16:35:32.381Z,2.07
2018-11-11T16:38:01.696Z,2.03
2018-11-11T16:40:31.773Z,1.90
2018-11-11T16:43:01.029Z,1.90
2018-11-11T16:45:30.509Z,1.90
2018-11-11T16:47:59.127Z,1.70
2018-11-11T16:50:29.552Z,1.60
2018-11-11T16:52:59.676Z,1.40
2018-11-11T16:55:30.046Z,1.80
2018-11-11T16:57:58.544Z,1.70
2018-11-11T17:00:29.526Z,1.90
2018-11-11T17:02:59.222Z,1.63
2018-11-11T17:05:29.472Z,1.50
2018-11-11T17:07:58.042Z,1.60
2018-11-11T17:10:28.965Z,1.60
2018-11-11T17:12:58.895Z,1.60
2018-11-11T17:15:29.211Z,1.73
2018-11-11T17:17:58.627Z,1.70
2018-11-11T17:20:28.054Z,1.87
2018-11-11T17:23:00.012Z,1.60
2018-11-11T17:25:28.893Z,1.20
2018-11-11T17:27:57.697Z,1.30
2018-11-11T17:30:28.103Z,1.70
2018-11-11T17:32:57.507Z,1.87
2018-11-11T17:35:26.745Z,3.00
2018-11-11T17:37:56.067Z,1.87
2018-11-11T17:40:27.104Z,1.63
2018-11-11T17:42:59.445Z,1.50
2018-11-11T17:45:28.731Z,1.40
2018-11-11T17:47:59.269Z,1.43
2018-11-11T17:50:31.241Z,1.82
2018-11-11T17:53:01.162Z,1.70
2018-11-11T17:55:30.352Z,1.70
2018-11-11T17:58:00.873Z,1.47
2018-11-11T18:00:31.114Z,1.60
2018-11-11T18:05:42.212Z,1.70
2018-11-11T18:08:10.953Z,1.73
2018-11-11T18:10:39.505Z,1.60
2018-11-11T18:13:08.246Z,1.50
2018-11-11T18:15:36.831Z,1.80
2018-11-11T18:18:05.769Z,1.87
2018-11-11T18:20:34.544Z,1.80
2018-11-11T18:23:03.981Z,1.40
2018-11-11T18:25:32.526Z,1.80
2018-11-11T18:28:01.305Z,1.47
2018-11-11T18:30:33.562Z,1.90
2018-11-11T18:33:02.246Z,1.80
2018-11-11T18:35:30.968Z,2.13
2018-11-11T18:37:59.591Z,2.10
2018-11-11T18:40:29.216Z,1.93
2018-11-11T18:42:58.080Z,2.33
2018-11-11T18:45:28.087Z,1.70
2018-11-11T18:47:56.807Z,1.73
2018-11-11T18:50:29.087Z,1.93
2018-11-11T18:52:57.793Z,1.50
2018-11-11T18:55:26.654Z,1.60
2018-11-11T18:57:55.345Z,1.47
2018-11-11T19:00:25.382Z,1.77
2018-11-11T19:02:54.803Z,2.20
2018-11-11T19:05:24.402Z,1.80
2018-11-11T19:07:53.365Z,1.77
2018-11-11T19:10:23.371Z,1.87
2018-11-11T19:12:53.457Z,1.77
2018-11-11T19:15:22.387Z,1.80
2018-11-11T19:17:51.855Z,1.80
2018-11-11T19:20:22.693Z,1.70
2018-11-11T19:22:51.647Z,1.77
2018-11-11T19:25:22.042Z,1.90
2018-11-11T19:27:52.524Z,1.97
2018-11-11T19:30:23.118Z,1.80
2018-11-11T19:32:52.311Z,2.20
2018-11-11T19:35:21.061Z,1.93
2018-11-11T19:37:51.370Z,2.10
2018-11-11T19:40:21.582Z,2.30
2018-11-11T19:42:51.059Z,2.10
2018-11-11T19:45:21.105Z,2.00
2018-11-11T19:47:49.936Z,2.00
2018-11-11T19:50:20.140Z,1.93
2018-11-11T19:52:49.957Z,2.20
2018-11-11T19:55:19.564Z,1.90
2018-11-11T19:57:48.260Z,2.20
2018-11-11T20:00:20.740Z,2.10
2018-11-11T20:02:50.357Z,1.80
2018-11-11T20:05:19.566Z,1.87
2018-11-11T20:07:49.408Z,1.93
2018-11-11T20:10:19.011Z,2.20
2018-11-11T20:12:47.597Z,1.47
2018-11-11T20:15:21.047Z,1.90
2018-11-11T20:17:49.993Z,1.93
2018-11-11T20:20:20.678Z,3.30
2018-11-11T20:22:49.858Z,2.63
2018-11-11T20:25:19.497Z,1.80
2018-11-11T20:27:48.542Z,1.50
2018-11-11T20:30:19.814Z,1.77
2018-11-11T20:32:48.550Z,1.80
2018-11-11T20:35:19.889Z,1.37
2018-11-11T20:37:48.665Z,1.50
2018-11-11T20:40:18.516Z,1.70
2018-11-11T20:42:47.525Z,1.87
2018-11-11T20:45:17.682Z,1.60
2018-11-11T20:47:47.013Z,1.50
2018-11-11T20:50:17.459Z,1.53
2018-11-11T20:52:47.132Z,1.37
2018-11-11T20:55:16.662Z,1.53
2018-11-11T20:57:45.285Z,1.40
2018-11-11T21:00:17.278Z,1.30
2018-11-11T21:02:46.244Z,1.40
2018-11-11T21:05:17.369Z,1.30
2018-11-11T21:07:46.076Z,1.00
2018-11-11T21:10:16.936Z,1.40
2018-11-11T21:12:45.576Z,1.20
2018-11-11T21:15:15.513Z,1.33
2018-11-11T21:17:44.693Z,1.13
2018-11-11T21:20:14.762Z,1.50
2018-11-11T21:22:43.745Z,0.90
2018-11-11T21:25:13.038Z,1.10
2018-11-11T21:27:42.608Z,1.20
2018-11-11T21:30:13.846Z,1.20
2018-11-11T21:32:42.583Z,1.10
2018-11-11T21:35:12.039Z,1.23
2018-11-11T21:37:41.094Z,1.13
2018-11-11T21:40:12.000Z,1.20
2018-11-11T21:42:41.135Z,1.00
2018-11-11T21:45:11.261Z,1.00
2018-11-11T21:47:40.020Z,1.30
2018-11-11T21:50:11.196Z,2.40
2018-11-11T21:52:39.828Z,2.30
2018-11-11T21:55:08.880Z,1.60
2018-11-11T21:57:37.728Z,1.10
2018-11-11T22:00:09.146Z,1.37
2018-11-11T22:02:37.897Z,1.30
2018-11-11T22:05:08.601Z,1.30
2018-11-11T22:07:37.667Z,0.90
2018-11-11T22:10:08.526Z,1.00
2018-11-11T22:12:37.495Z,1.00
2018-11-11T22:15:07.933Z,1.10
2018-11-11T22:17:36.630Z,0.87
2018-11-11T22:20:05.901Z,1.10
2018-11-11T22:22:34.605Z,1.17
2018-11-11T22:25:03.599Z,0.90
2018-11-11T22:27:32.252Z,1.10
2018-11-11T22:30:00.918Z,1.07
2018-11-11T22:32:29.447Z,1.00
2018-11-11T22:34:58.254Z,0.80
2018-11-11T22:37:26.993Z,0.80
2018-11-11T22:39:55.699Z,0.93
2018-11-11T22:42:24.305Z,1.37
2018-11-11T22:44:53.341Z,1.00
2018-11-11T22:47:21.908Z,1.13
2018-11-11T22:49:51.813Z,1.93
2018-11-11T22:52:21.039Z,0.90
2018-11-11T22:54:49.694Z,0.67
2018-11-11T22:57:18.360Z,0.70
2018-11-11T22:59:47.931Z,0.73
2018-11-11T23:02:17.033Z,0.73
2018-11-11T23:04:45.734Z,0.80
2018-11-11T23:07:14.911Z,0.80
2018-11-11T23:09:44.081Z,0.80
2018-11-11T23:12:13.766Z,0.90
2018-11-11T23:14:45.351Z,0.53
2018-11-11T23:17:13.877Z,0.60
2018-11-11T23:19:42.611Z,0.83
2018-11-11T23:22:11.269Z,0.70
2018-11-11T23:24:39.997Z,0.90
2018-11-11T23:27:09.095Z,0.80
2018-11-11T23:29:37.935Z,0.90
2018-11-11T23:32:06.563Z,1.07
2018-11-11T23:34:35.077Z,0.80
2018-11-11T23:37:04.140Z,0.40
2018-11-11T23:39:32.740Z,0.70
2018-11-11T23:42:01.372Z,0.67
2018-11-11T23:44:29.942Z,1.10
2018-11-11T23:46:58.615Z,1.00
2018-11-11T23:49:27.279Z,0.90
2018-11-11T23:51:56.094Z,0.60
2018-11-11T23:54:24.798Z,0.93
2018-11-11T23:56:53.562Z,0.60
2018-11-11T23:59:22.192Z,0.70
